Time;durP1;ratioP1;P1;durP2;ratioP2;P2;SDS_P1;SDS_P2;PMS_P1;PMS_P2;Temp;Humidity;BMP_temperature;BMP_pressure;BME280_temperature;BME280_humidity;BME280_pressure;Samples;Min_cycle;Max_cycle;Signal;HPM_P1;HPM_P2
2022/09/24 00:01:39;;;;;;;7.60;3.92;;;;;;;6.70;85.58;99409.92;1702895;84;20929;-77
2022/09/24 00:04:10;;;;;;;7.20;4.03;;;;;;;6.70;84.58;99402.17;1672546;84;20987;-78
2022/09/24 00:06:44;;;;;;;7.75;3.83;;;;;;;6.72;86.28;99406.05;1702929;84;20960;-77
2022/09/24 00:09:15;;;;;;;8.38;3.52;;;;;;;6.69;84.86;99403.05;1662982;84;21034;-77
2022/09/24 00:11:44;;;;;;;11.48;4.25;;;;;;;6.67;85.51;99401.34;1686607;84;21088;-77
2022/09/24 00:14:12;;;;;;;7.35;3.47;;;;;;;6.66;85.19;99399.61;1653096;85;21008;-77
2022/09/24 00:16:42;;;;;;;8.58;3.85;;;;;;;6.63;84.92;99397.06;1669900;86;21051;-78
2022/09/24 00:19:12;;;;;;;7.67;3.72;;;;;;;6.61;85.48;99400.94;1665542;86;21021;-77
2022/09/24 00:21:41;;;;;;;7.30;3.50;;;;;;;6.61;85.94;99400.94;1675059;85;21494;-77
2022/09/24 00:26:48;;;;;;;7.62;4.70;;;;;;;6.62;85.40;99401.34;1668003;85;20964;-77
2022/09/24 00:26:51;;;;;;;8.58;4.58;;;;;;;6.61;85.77;99400.94;1614533;88;21003;-77
2022/09/24 00:29:22;;;;;;;7.25;3.83;;;;;;;6.58;86.01;99394.48;1627039;87;21014;-77
2022/09/24 00:31:52;;;;;;;6.50;3.40;;;;;;;6.61;86.14;99397.50;1626216;88;21066;-77
2022/09/24 00:34:20;;;;;;;8.43;4.03;;;;;;;6.63;85.82;99394.48;1624510;87;21025;-77
2022/09/24 00:36:48;;;;;;;7.15;3.80;;;;;;;6.65;85.36;99404.38;1633157;88;21494;-77
2022/09/24 00:39:16;;;;;;;10.23;3.42;;;;;;;6.65;85.56;99404.38;1673352;85;21039;-77
2022/09/24 00:41:46;;;;;;;7.65;3.90;;;;;;;6.64;85.57;99391.86;1668061;86;20993;-77
2022/09/24 00:44:42;;;;;;;6.58;3.58;;;;;;;6.66;86.35;99399.17;1676880;85;21066;-78
2022/09/24 00:47:28;;;;;;;5.30;3.00;;;;;;;6.68;86.25;99397.44;1663523;85;21017;-78
2022/09/24 00:50:10;;;;;;;8.20;3.50;;;;;;;6.73;85.83;99391.83;1668419;85;20997;-78
2022/09/24 00:52:45;;;;;;;10.93;3.37;;;;;;;6.82;86.50;99392.20;1665202;86;20979;-77
2022/09/24 00:55:14;;;;;;;8.03;3.55;;;;;;;6.90;86.81;99390.47;1660614;85;21109;-78
2022/09/24 00:57:43;;;;;;;6.28;3.20;;;;;;;6.93;86.12;99389.14;1666129;86;21537;-77
2022/09/24 01:00:12;;;;;;;6.42;3.33;;;;;;;6.95;86.54;99395.60;1663721;85;21055;-77
2022/09/24 01:02:44;;;;;;;7.42;3.58;;;;;;;6.96;85.92;99389.55;1660601;86;20985;-78
2022/09/24 01:05:12;;;;;;;6.70;3.83;;;;;;;6.99;86.09;99389.55;1662646;85;21078;-77
2022/09/24 01:07:40;;;;;;;7.80;4.22;;;;;;;7.00;85.99;99390.40;1652857;85;20972;-77
2022/09/24 01:10:08;;;;;;;7.37;3.85;;;;;;;7.03;86.04;99396.86;1674481;85;21538;-77
2022/09/24 01:12:50;;;;;;;6.78;3.72;;;;;;;7.06;86.04;99386.48;1620830;87;21027;-78
2022/09/24 01:15:28;;;;;;;8.00;3.67;;;;;;;7.11;86.53;99392.05;1672435;85;20993;-77
2022/09/24 01:18:27;;;;;;;8.35;3.58;;;;;;;7.11;85.67;99392.05;1623947;88;21035;-78
2022/09/24 01:21:09;;;;;;;7.40;3.75;;;;;;;7.13;85.41;99390.76;1637252;86;21033;-77
2022/09/24 01:23:57;;;;;;;7.17;3.37;;;;;;;7.14;86.52;99388.17;1648977;86;21549;-77
2022/09/24 01:26:55;;;;;;;6.08;3.00;;;;;;;7.18;86.30;99390.27;1680568;85;21024;-78
2022/09/24 01:29:45;;;;;;;6.90;3.35;;;;;;;7.20;85.77;99385.95;1681886;85;21041;-80
2022/09/24 01:32:42;;;;;;;5.70;3.42;;;;;;;7.21;85.87;99394.15;1665198;86;21006;-78
2022/09/24 01:35:36;;;;;;;8.18;3.37;;;;;;;7.20;85.98;99387.24;1659350;86;21038;-79
2022/09/24 01:38:26;;;;;;;8.23;3.20;;;;;;;7.21;85.40;99380.37;1662363;86;21054;-81
2022/09/24 01:40:58;;;;;;;7.37;3.62;;;;;;;7.11;84.68;99384.30;1669630;86;21054;-80
2022/09/24 01:43:27;;;;;;;8.23;3.50;;;;;;;6.99;85.10;99386.11;1663060;86;21478;-77
2022/09/24 01:45:57;;;;;;;5.22;2.87;;;;;;;6.92;85.66;99387.45;1660155;85;21001;-80
2022/09/24 01:48:26;;;;;;;6.15;3.58;;;;;;;6.87;84.93;99389.18;1612318;87;21000;-77
2022/09/24 01:51:28;;;;;;;7.75;3.40;;;;;;;6.78;85.67;99387.92;1638014;87;21033;-78
2022/09/24 01:54:07;;;;;;;6.37;3.47;;;;;;;6.73;85.80;99382.79;1633299;86;21054;-77
2022/09/24 01:56:49;;;;;;;10.40;4.12;;;;;;;6.68;85.86;99385.81;1639379;87;21133;-77
2022/09/24 01:59:44;;;;;;;7.10;3.55;;;;;;;6.66;86.06;99387.98;1632825;86;21006;-77
2022/09/24 02:02:34;;;;;;;7.22;3.58;;;;;;;6.62;85.12;99383.70;1634861;87;21070;-78
2022/09/24 02:05:11;;;;;;;7.90;3.55;;;;;;;6.53;85.64;99381.59;1639730;87;21006;-77
2022/09/24 02:07:59;;;;;;;7.78;3.70;;;;;;;6.43;85.17;99379.06;1643890;87;21030;-77
2022/09/24 02:10:31;;;;;;;5.62;3.27;;;;;;;6.33;85.43;99380.38;1623112;86;21098;-77
2022/09/24 02:13:03;;;;;;;7.08;3.40;;;;;;;6.22;85.22;99377.40;1642043;87;21013;-76
2022/09/24 02:15:38;;;;;;;6.45;3.30;;;;;;;6.12;85.82;99385.59;1645810;87;21060;-77
2022/09/24 02:18:13;;;;;;;9.88;3.62;;;;;;;6.06;86.63;99379.16;1644954;87;20990;-78
2022/09/24 02:20:43;;;;;;;4.83;3.12;;;;;;;6.02;85.99;99380.03;1641759;87;21060;-79
2022/09/24 02:23:14;;;;;;;6.87;3.27;;;;;;;5.93;86.53;99387.34;1650121;84;21005;-77
2022/09/24 02:26:02;;;;;;;7.90;3.52;;;;;;;5.92;86.22;99389.48;1646840;84;21025;-77
2022/09/24 02:28:31;;;;;;;7.53;3.80;;;;;;;5.83;86.87;99394.23;1676340;83;21012;-78
2022/09/24 02:31:13;;;;;;;9.15;3.95;;;;;;;5.82;86.67;99395.52;1649659;86;21051;-78
2022/09/24 02:36:31;;;;;;;6.53;3.22;;;;;;;5.77;86.39;99386.50;1646236;86;21074;-77
2022/09/24 02:38:58;;;;;;;7.42;3.30;;;;;;;5.73;86.18;99390.80;1643013;87;21502;-77
2022/09/24 02:41:27;;;;;;;6.33;3.27;;;;;;;5.72;86.58;99383.90;1646403;87;21550;-77
2022/09/24 02:43:54;;;;;;;5.50;3.17;;;;;;;5.69;86.81;99388.20;1645258;87;21019;-77
2022/09/24 02:46:23;;;;;;;6.50;3.00;;;;;;;5.70;87.01;99389.93;1643594;87;21608;-77
2022/09/24 02:48:50;;;;;;;6.60;3.45;;;;;;;5.72;87.09;99398.09;1644621;87;21013;-77
2022/09/24 02:51:18;;;;;;;7.30;3.70;;;;;;;5.75;87.42;99393.38;1641235;87;21026;-77
2022/09/24 02:53:45;;;;;;;9.58;3.33;;;;;;;5.80;87.61;99392.92;1651568;85;21034;-77
2022/09/24 02:56:14;;;;;;;9.55;2.98;;;;;;;5.83;87.03;99400.68;1675957;85;21024;-77
2022/09/24 02:58:42;;;;;;;8.20;3.50;;;;;;;5.82;86.33;99399.39;1653348;86;21021;-77
2022/09/24 03:01:09;;;;;;;6.47;2.75;;;;;;;5.78;85.95;99407.11;1677842;85;21063;-77
2022/09/24 03:03:37;;;;;;;6.20;3.20;;;;;;;5.73;86.26;99406.68;1651569;86;21549;-77
2022/09/24 03:06:05;;;;;;;7.00;3.08;;;;;;;5.71;86.86;99409.28;1663349;85;21579;-77
2022/09/24 03:08:34;;;;;;;5.87;2.95;;;;;;;5.69;86.03;99413.99;1652257;86;21011;-77
2022/09/24 03:11:01;;;;;;;5.50;3.00;;;;;;;5.63;86.69;99411.02;1679171;85;21141;-77
2022/09/24 03:13:29;;;;;;;10.23;4.55;;;;;;;5.61;87.93;99410.16;1660703;85;21033;-79
2022/09/24 03:15:56;;;;;;;7.30;3.98;;;;;;;5.61;86.45;99410.16;1633240;87;21024;-77
2022/09/24 03:18:24;;;;;;;10.32;3.80;;;;;;;5.55;86.60;99412.30;1626040;87;21017;-77
2022/09/24 03:21:04;;;;;;;6.40;3.67;;;;;;;5.55;88.15;99407.55;1633918;88;20997;-77
2022/09/24 03:23:31;;;;;;;9.23;3.87;;;;;;;5.55;87.33;99405.84;1627972;86;21015;-78
2022/09/24 03:25:59;;;;;;;7.90;3.83;;;;;;;5.51;87.56;99400.27;1613768;88;20985;-77
2022/09/24 03:28:27;;;;;;;7.08;3.60;;;;;;;5.55;89.64;99404.97;1626394;88;21094;-77
2022/09/24 03:31:01;;;;;;;9.08;3.47;;;;;;;5.56;89.37;99402.83;1633187;88;20977;-79
2022/09/24 03:33:41;;;;;;;10.80;4.22;;;;;;;5.56;88.91;99405.41;1626442;88;21032;-78
2022/09/24 03:36:16;;;;;;;7.35;4.05;;;;;;;5.54;88.51;99413.58;1625476;88;21013;-77
2022/09/24 03:38:45;;;;;;;6.70;3.55;;;;;;;5.55;88.78;99399.41;1627780;88;21010;-77
2022/09/24 03:41:14;;;;;;;6.75;3.30;;;;;;;5.56;87.87;99402.83;1623366;88;21165;-77
2022/09/24 03:43:42;;;;;;;7.33;3.55;;;;;;;5.55;87.32;99407.14;1629274;88;20959;-76
2022/09/24 03:46:11;;;;;;;5.67;3.33;;;;;;;5.51;87.79;99404.13;1631174;87;21076;-77
2022/09/24 03:48:40;;;;;;;6.92;3.27;;;;;;;5.51;87.59;99406.71;1630500;88;21002;-78
2022/09/24 03:51:14;;;;;;;8.98;4.08;;;;;;;5.54;87.53;99409.71;1664498;85;21872;-78
2022/09/24 03:53:41;;;;;;;6.05;3.55;;;;;;;5.50;88.40;99404.97;1677367;85;20986;-77
2022/09/24 03:56:11;;;;;;;7.92;3.85;;;;;;;5.51;89.20;99411.87;1624263;88;21027;-77
2022/09/24 03:58:40;;;;;;;7.42;3.75;;;;;;;5.50;88.19;99414.00;1668411;85;21100;-78
2022/09/24 04:01:11;;;;;;;5.72;3.25;;;;;;;5.49;88.20;99408.84;1649431;85;21034;-79
2022/09/24 04:03:39;;;;;;;6.62;3.65;;;;;;;5.41;88.73;99413.13;1633863;87;21088;-78
2022/09/24 04:06:07;;;;;;;7.53;3.70;;;;;;;5.35;88.79;99411.40;1627581;88;20998;-78
2022/09/24 04:08:35;;;;;;;9.35;3.60;;;;;;;5.32;88.73;99413.55;1634225;88;21549;-77
2022/09/24 04:11:02;;;;;;;5.97;3.37;;;;;;;5.29;88.67;99412.28;1626621;87;22511;-77
2022/09/24 04:13:30;;;;;;;7.65;3.67;;;;;;;5.27;89.84;99415.69;1645326;87;21033;-77
2022/09/24 04:16:04;;;;;;;10.48;3.75;;;;;;;5.28;89.54;99413.13;1638090;87;21019;-77
2022/09/24 04:18:32;;;;;;;9.53;3.40;;;;;;;5.30;89.47;99421.72;1640677;87;20991;-78
2022/09/24 04:21:00;;;;;;;7.28;3.67;;;;;;;5.22;89.64;99425.16;1639583;87;21066;-77
2022/09/24 04:23:30;;;;;;;6.58;3.62;;;;;;;5.22;90.12;99424.72;1660102;85;20977;-77
2022/09/24 04:26:00;;;;;;;10.08;4.03;;;;;;;5.24;91.05;99435.03;1670417;85;21004;-77
2022/09/24 04:28:29;;;;;;;9.85;3.30;;;;;;;5.20;90.78;99435.89;1669245;86;20997;-77
2022/09/24 04:30:57;;;;;;;8.35;4.00;;;;;;;5.20;89.23;99432.02;1663515;86;21014;-78
2022/09/24 04:33:25;;;;;;;7.42;3.58;;;;;;;5.21;89.72;99434.58;1665289;86;20982;-78
2022/09/24 04:35:52;;;;;;;9.43;4.22;;;;;;;5.26;89.98;99443.63;1680778;85;20993;-78
2022/09/24 04:38:20;;;;;;;11.83;3.98;;;;;;;5.27;91.15;99437.20;1663717;86;20998;-78
2022/09/24 04:40:48;;;;;;;7.45;4.08;;;;;;;5.35;89.32;99444.92;1682405;85;21461;-77
2022/09/24 04:43:17;;;;;;;9.00;4.33;;;;;;;5.31;88.90;99441.50;1648740;85;20988;-78
2022/09/24 04:45:45;;;;;;;14.00;4.53;;;;;;;5.37;89.43;99446.66;1660876;86;21513;-77
2022/09/24 04:48:13;;;;;;;6.80;3.83;;;;;;;5.39;89.68;99442.77;1661103;86;21030;-77
2022/09/24 04:50:41;;;;;;;8.18;3.85;;;;;;;5.45;90.73;99451.84;1665386;85;21022;-78
2022/09/24 04:53:08;;;;;;;9.15;4.37;;;;;;;5.50;89.91;99441.08;1664887;85;21025;-77
2022/09/24 04:55:36;;;;;;;10.05;4.60;;;;;;;5.56;91.01;99436.36;1673341;85;21072;-77
2022/09/24 04:58:03;;;;;;;9.08;4.17;;;;;;;5.57;90.56;99442.81;1673378;85;20985;-77
2022/09/24 05:00:32;;;;;;;11.53;4.25;;;;;;;5.60;89.57;99444.97;1617146;88;21026;-77
2022/09/24 05:03:04;;;;;;;8.83;4.15;;;;;;;5.63;90.16;99453.58;1628337;87;21001;-77
2022/09/24 05:05:33;;;;;;;10.58;3.92;;;;;;;5.70;90.10;99450.55;1657315;85;21036;-77
2022/09/24 05:08:01;;;;;;;12.78;5.12;;;;;;;5.75;90.15;99452.28;1614859;88;21575;-77
2022/09/24 05:10:31;;;;;;;18.32;5.17;;;;;;;5.81;89.22;99446.27;1639651;87;21018;-77
2022/09/24 05:13:00;;;;;;;10.20;4.58;;;;;;;5.69;89.78;99443.25;1670575;85;21068;-77
2022/09/24 05:15:28;;;;;;;8.13;3.75;;;;;;;5.67;89.76;99452.71;1643442;87;21139;-77
2022/09/24 05:17:56;;;;;;;8.95;3.02;;;;;;;5.73;89.18;99447.95;1673272;85;20957;-77
2022/09/24 05:20:24;;;;;;;6.50;3.72;;;;;;;5.75;89.41;99447.56;1653444;87;21009;-77
2022/09/24 05:22:51;;;;;;;7.22;3.40;;;;;;;5.71;89.63;99458.30;1667895;85;20994;-77
2022/09/24 05:25:21;;;;;;;7.17;3.33;;;;;;;5.72;89.57;99449.69;1650784;85;21112;-77
2022/09/24 05:27:53;;;;;;;4.58;2.65;;;;;;;5.74;89.05;99450.55;1608416;88;21450;-78
2022/09/24 05:30:24;;;;;;;7.03;3.47;;;;;;;5.71;89.63;99444.11;1631046;87;21061;-78
2022/09/24 05:32:52;;;;;;;6.75;2.60;;;;;;;5.77;90.33;99445.84;1662610;86;21007;-77
2022/09/24 05:35:22;;;;;;;5.45;3.10;;;;;;;5.83;89.47;99445.83;1658046;86;21044;-77
2022/09/24 05:37:52;;;;;;;4.97;2.70;;;;;;;5.80;89.58;99445.82;1665170;85;21044;-78
2022/09/24 05:43:05;;;;;;;8.13;2.65;;;;;;;5.80;89.50;99454.00;1661952;86;21505;-78
2022/09/24 05:45:33;;;;;;;6.20;3.10;;;;;;;5.77;89.12;99467.33;1657441;86;21015;-77
2022/09/24 05:48:01;;;;;;;7.92;2.95;;;;;;;5.77;90.04;99467.33;1664417;86;20999;-78
2022/09/24 05:50:29;;;;;;;9.58;3.60;;;;;;;5.83;90.11;99465.19;1656979;85;21076;-77
2022/09/24 05:52:57;;;;;;;7.55;3.33;;;;;;;5.87;90.00;99468.20;1643539;85;20982;-77
2022/09/24 05:55:25;;;;;;;6.30;3.58;;;;;;;5.93;89.30;99457.87;1668029;84;21048;-77
2022/09/24 05:57:52;;;;;;;7.22;3.37;;;;;;;5.98;89.16;99457.45;1646263;87;21011;-78
2022/09/24 06:00:20;;;;;;;7.40;3.02;;;;;;;6.05;89.40;99460.02;1650111;86;20996;-77
2022/09/24 06:02:49;;;;;;;4.78;2.60;;;;;;;6.16;89.15;99464.75;1669816;85;20969;-77
2022/09/24 06:05:16;;;;;;;5.22;2.50;;;;;;;6.29;89.56;99468.19;1638468;87;21038;-77
2022/09/24 06:07:44;;;;;;;7.40;2.85;;;;;;;6.31;89.01;99460.02;1646023;87;21019;-78
2022/09/24 06:10:12;;;;;;;6.45;2.95;;;;;;;6.47;88.86;99470.73;1639472;87;21083;-77
2022/09/24 06:12:40;;;;;;;7.00;3.20;;;;;;;6.52;88.85;99479.30;1623273;87;21082;-78
2022/09/24 06:15:12;;;;;;;5.40;2.60;;;;;;;6.57;88.78;99478.88;1670342;85;21098;-80
2022/09/24 06:17:41;;;;;;;6.83;2.47;;;;;;;6.61;88.42;99473.27;1664508;86;21058;-78
2022/09/24 06:20:08;;;;;;;5.70;2.75;;;;;;;6.62;88.24;99481.88;1676493;85;21033;-78
2022/09/24 06:22:36;;;;;;;5.80;2.65;;;;;;;6.62;88.22;99479.29;1670312;85;20993;-77
2022/09/24 06:25:05;;;;;;;7.22;2.80;;;;;;;6.68;88.31;99480.13;1616372;88;21030;-78
2022/09/24 06:27:32;;;;;;;5.42;3.12;;;;;;;6.80;88.46;99480.95;1626822;87;21042;-78
2022/09/24 06:30:00;;;;;;;4.58;2.65;;;;;;;6.90;88.30;99482.23;1625405;88;20987;-77
2022/09/24 06:32:27;;;;;;;8.33;3.83;;;;;;;7.02;87.72;99484.31;1669469;85;21541;-78
2022/09/24 06:34:54;;;;;;;6.12;3.05;;;;;;;7.10;87.76;99482.55;1656811;86;21506;-78
2022/09/24 06:37:22;;;;;;;7.28;2.60;;;;;;;7.10;87.46;99483.43;1663284;86;21009;-78
2022/09/24 06:39:50;;;;;;;6.85;2.85;;;;;;;7.12;86.58;99473.05;1657874;84;21001;-78
2022/09/24 06:42:17;;;;;;;5.87;3.27;;;;;;;7.18;87.10;99480.78;1621117;86;21047;-78
2022/09/24 06:44:45;;;;;;;6.47;3.52;;;;;;;7.26;87.23;99480.33;1632688;87;21018;-78
2022/09/24 06:47:12;;;;;;;5.95;3.25;;;;;;;7.41;87.30;99478.52;1678101;85;21105;-78
2022/09/24 06:49:40;;;;;;;7.42;3.55;;;;;;;7.51;87.43;99473.26;1658555;85;21009;-78
2022/09/24 06:52:07;;;;;;;7.53;4.55;;;;;;;7.67;87.17;99481.78;1618252;88;21069;-78
2022/09/24 06:54:35;;;;;;;6.67;3.42;;;;;;;7.81;86.98;99479.53;1623498;87;21113;-78
2022/09/24 06:57:06;;;;;;;9.70;3.65;;;;;;;7.87;86.30;99480.77;1630218;88;21537;-77
2022/09/24 06:59:33;;;;;;;9.93;3.00;;;;;;;7.91;86.15;99479.88;1627315;87;20998;-78
2022/09/24 07:02:01;;;;;;;5.33;3.27;;;;;;;7.97;86.12;99485.00;1667915;86;21073;-78
2022/09/24 07:04:28;;;;;;;5.33;3.05;;;;;;;8.09;85.71;99490.52;1677671;85;21049;-78
2022/09/24 07:09:41;;;;;;;4.37;2.60;;;;;;;8.07;83.42;99498.29;1671932;85;21033;-78
2022/09/24 07:12:09;;;;;;;5.75;2.83;;;;;;;8.10;84.22;99498.72;1622571;88;21093;-78
2022/09/24 07:14:36;;;;;;;5.05;2.70;;;;;;;7.94;84.15;99496.25;1636811;86;21075;-79
2022/09/24 07:17:04;;;;;;;5.25;2.87;;;;;;;7.96;84.64;99497.55;1638203;87;20985;-80
2022/09/24 07:19:31;;;;;;;5.80;2.98;;;;;;;8.04;84.44;99502.22;1641584;86;21027;-81
2022/09/24 07:21:59;;;;;;;8.70;3.30;;;;;;;8.01;84.92;99502.67;1639289;87;20994;-79
2022/09/24 07:24:26;;;;;;;4.95;2.50;;;;;;;8.07;85.12;99504.77;1641412;87;21030;-78
2022/09/24 07:26:54;;;;;;;5.50;3.15;;;;;;;8.19;84.74;99509.42;1641720;87;21050;-78
2022/09/24 07:29:21;;;;;;;8.98;2.90;;;;;;;8.22;84.50;99513.30;1641909;86;21046;-79
2022/09/24 07:31:49;;;;;;;4.10;2.80;;;;;;;8.24;84.97;99516.29;1643501;87;20986;-79
2022/09/24 07:34:17;;;;;;;5.90;3.02;;;;;;;8.35;85.07;99503.23;1646088;87;21070;-78
2022/09/24 07:36:44;;;;;;;4.17;2.52;;;;;;;8.46;84.84;99509.20;1636321;87;21068;-79
2022/09/24 07:39:12;;;;;;;5.67;2.70;;;;;;;8.59;83.93;99502.59;1646524;87;20987;-79
2022/09/24 07:41:40;;;;;;;5.85;3.58;;;;;;;8.64;83.54;99502.97;1639368;86;21075;-78
2022/09/24 07:44:09;;;;;;;6.53;3.22;;;;;;;8.71;83.63;99499.86;1647731;87;20990;-77
2022/09/24 07:46:36;;;;;;;7.17;3.67;;;;;;;8.83;83.79;99492.39;1639718;86;21026;-79
2022/09/24 07:49:04;;;;;;;7.20;2.90;;;;;;;8.94;83.91;99490.09;1647646;87;20991;-79
2022/09/24 07:51:31;;;;;;;4.05;2.52;;;;;;;9.05;82.70;99489.98;1641310;87;21023;-79
2022/09/24 07:53:58;;;;;;;6.15;3.22;;;;;;;9.19;82.94;99487.20;1664880;84;21073;-78
2022/09/24 07:56:26;;;;;;;4.95;3.08;;;;;;;9.31;82.47;99496.53;1679772;85;21020;-79
2022/09/24 07:58:53;;;;;;;6.35;2.87;;;;;;;9.38;82.23;99502.52;1681448;85;20985;-78
2022/09/24 08:01:21;;;;;;;5.85;2.90;;;;;;;9.52;82.27;99492.34;1679884;85;21076;-79
2022/09/24 08:03:50;;;;;;;5.40;3.10;;;;;;;9.65;82.09;99489.56;1685544;85;20985;-78
2022/09/24 08:06:21;;;;;;;3.98;2.62;;;;;;;9.75;81.60;99493.77;1682886;85;21582;-80
2022/09/24 08:08:51;;;;;;;5.45;2.67;;;;;;;9.86;80.37;99491.84;1679360;85;21033;-78
2022/09/24 08:11:20;;;;;;;4.90;2.55;;;;;;;9.95;79.76;99490.41;1680505;85;21614;-79
2022/09/24 08:13:47;;;;;;;3.75;2.40;;;;;;;10.08;80.48;99491.05;1680587;85;21112;-80
2022/09/24 08:16:16;;;;;;;6.20;2.92;;;;;;;10.28;80.56;99500.24;1668218;85;21102;-80
2022/09/24 08:18:44;;;;;;;4.42;2.40;;;;;;;10.39;78.94;99494.45;1669219;86;21049;-80
2022/09/24 08:21:14;;;;;;;5.60;2.72;;;;;;;10.52;79.64;99489.87;1668059;85;20981;-78
2022/09/24 08:23:42;;;;;;;4.97;2.77;;;;;;;10.68;78.87;99490.45;1690203;85;20989;-79
2022/09/24 08:26:11;;;;;;;4.97;2.58;;;;;;;10.83;78.03;99494.06;1690095;84;20985;-78
2022/09/24 08:28:44;;;;;;;5.03;2.60;;;;;;;10.93;74.91;99498.19;1673037;85;21043;-79
2022/09/24 08:31:12;;;;;;;4.45;2.58;;;;;;;11.08;75.84;99498.75;1683142;85;20977;-81
2022/09/24 08:33:40;;;;;;;5.37;3.00;;;;;;;11.23;75.62;99497.14;1651374;85;21027;-78
2022/09/24 08:36:09;;;;;;;4.58;2.50;;;;;;;11.35;76.04;99496.87;1670278;85;20945;-79
2022/09/24 08:38:37;;;;;;;9.20;2.80;;;;;;;11.52;76.52;99496.97;1679594;84;20999;-78
2022/09/24 08:41:13;;;;;;;7.78;2.60;;;;;;;11.65;75.23;99494.92;1673994;85;20985;-78
2022/09/24 08:43:59;;;;;;;4.17;2.40;;;;;;;11.76;76.48;99487.73;1683257;85;21036;-78
2022/09/24 08:49:40;;;;;;;5.83;3.08;;;;;;;12.07;73.63;99477.88;1653891;86;21030;-81
2022/09/24 08:52:45;;;;;;;8.38;3.77;;;;;;;12.24;75.21;99481.38;1655832;85;20956;-76
2022/09/24 08:55:42;;;;;;;7.15;2.37;;;;;;;12.40;72.37;99483.14;1644203;85;21054;-76
2022/09/24 08:58:18;;;;;;;4.08;2.22;;;;;;;12.54;69.02;99477.95;1670882;86;20975;-79
2022/09/24 09:01:08;;;;;;;4.03;2.00;;;;;;;12.74;71.76;99473.94;1665257;86;20998;-77
2022/09/24 09:03:55;;;;;;;6.60;2.20;;;;;;;12.85;70.28;99471.90;1651066;87;21002;-78
2022/09/24 09:06:54;;;;;;;3.40;1.85;;;;;;;12.94;68.06;99470.31;1637871;87;21043;-77
2022/09/24 09:09:39;;;;;;;4.45;2.30;;;;;;;13.06;69.47;99460.42;1668487;86;21034;-76
2022/09/24 09:12:14;;;;;;;5.33;2.42;;;;;;;13.20;69.15;99451.72;1666766;86;21089;-77
2022/09/24 09:15:02;;;;;;;4.50;2.25;;;;;;;13.38;68.39;99453.41;1668524;85;21045;-76
2022/09/24 09:17:53;;;;;;;6.75;2.15;;;;;;;13.47;66.93;99450.06;1665383;86;21073;-77
2022/09/24 09:20:32;;;;;;;5.53;2.35;;;;;;;13.58;68.00;99440.57;1656531;86;21077;-78
2022/09/24 09:23:22;;;;;;;4.65;2.00;;;;;;;13.75;68.03;99428.29;1668449;86;21490;-79
2022/09/24 09:25:58;;;;;;;4.03;1.82;;;;;;;14.01;67.69;99436.56;1647845;85;21496;-78
2022/09/24 09:28:27;;;;;;;3.70;1.90;;;;;;;14.12;67.60;99429.22;1667554;85;21020;-78
2022/09/24 09:31:05;;;;;;;3.50;1.85;;;;;;;14.28;65.40;99431.28;1686507;84;21473;-78
2022/09/24 09:34:00;;;;;;;4.25;1.87;;;;;;;14.37;63.88;99438.81;1670384;86;21128;-78
2022/09/24 09:36:36;;;;;;;3.37;1.87;;;;;;;14.46;63.65;99426.73;1666603;86;21034;-80
2022/09/24 09:39:21;;;;;;;4.90;2.33;;;;;;;14.68;64.85;99431.20;1660702;85;20978;-78
2022/09/24 09:41:59;;;;;;;3.98;1.75;;;;;;;14.82;64.60;99423.72;1679976;85;21000;-80
2022/09/24 09:44:30;;;;;;;3.12;1.60;;;;;;;14.99;56.99;99430.92;1657837;86;21211;-77
2022/09/24 09:47:06;;;;;;;3.80;1.85;;;;;;;15.10;58.05;99415.66;1666417;86;20981;-78
2022/09/24 09:49:37;;;;;;;3.70;1.77;;;;;;;15.24;58.64;99425.61;1664371;85;21029;-77
2022/09/24 09:52:15;;;;;;;2.90;1.52;;;;;;;15.34;58.54;99413.44;1684719;84;21008;-79
2022/09/24 09:54:43;;;;;;;4.35;1.65;;;;;;;15.44;55.34;99410.88;1667027;84;21133;-78
2022/09/24 09:57:16;;;;;;;2.80;1.60;;;;;;;15.45;51.31;99420.42;1671227;86;21501;-77
2022/09/24 09:59:51;;;;;;;4.45;2.33;;;;;;;15.57;48.51;99413.84;1656880;86;21022;-77
2022/09/24 10:02:32;;;;;;;3.33;1.85;;;;;;;15.76;56.33;99411.38;1674857;85;21002;-78
2022/09/24 10:05:05;;;;;;;2.72;1.62;;;;;;;15.96;54.93;99421.03;1673018;86;21022;-80
2022/09/24 10:07:43;;;;;;;2.95;1.67;;;;;;;16.04;56.23;99411.91;1682651;85;20965;-81
2022/09/24 10:10:23;;;;;;;3.52;1.70;;;;;;;16.15;52.55;99409.28;1653808;86;20984;-81
2022/09/24 10:13:07;;;;;;;2.75;1.60;;;;;;;16.29;53.29;99408.22;1675254;86;21164;-79
2022/09/24 10:15:52;;;;;;;3.75;1.47;;;;;;;16.38;49.82;99414.39;1669022;86;21065;-80
2022/09/24 10:18:34;;;;;;;2.00;1.30;;;;;;;16.55;50.73;99415.41;1675880;85;21022;-78
2022/09/24 10:21:07;;;;;;;2.70;1.60;;;;;;;16.73;50.60;99410.63;1641354;86;21496;-79
2022/09/24 10:23:41;;;;;;;3.25;1.40;;;;;;;16.82;50.44;99408.10;1673963;86;21026;-79
2022/09/24 10:26:09;;;;;;;2.08;1.30;;;;;;;16.98;49.45;99410.88;1666078;86;20974;-78
2022/09/24 10:31:30;;;;;;;2.22;1.42;;;;;;;17.27;47.37;99411.67;1672595;86;21604;-79
2022/09/24 10:33:59;;;;;;;3.30;1.62;;;;;;;17.48;49.32;99414.19;1667060;85;21094;-80
2022/09/24 10:36:31;;;;;;;2.95;1.80;;;;;;;17.66;44.35;99414.59;1665574;86;21021;-79
2022/09/24 10:39:12;;;;;;;2.37;1.40;;;;;;;17.70;46.56;99408.73;1669493;85;21039;-80
2022/09/24 10:41:49;;;;;;;2.45;1.42;;;;;;;17.80;43.17;99411.28;1668846;86;21442;-78
2022/09/24 10:44:19;;;;;;;3.05;1.40;;;;;;;17.88;44.03;99413.56;1651725;87;21503;-80
2022/09/24 10:47:16;;;;;;;2.02;1.42;;;;;;;18.09;44.89;99403.75;1649414;86;21003;-78
2022/09/24 10:50:01;;;;;;;3.12;1.55;;;;;;;18.27;45.91;99411.16;1638559;85;21039;-79
2022/09/24 10:52:53;;;;;;;7.55;2.80;;;;;;;18.30;42.78;99410.98;1647271;87;21040;-78
2022/09/24 10:55:47;;;;;;;4.87;1.70;;;;;;;18.39;43.64;99409.68;1646775;86;21062;-79
2022/09/24 10:58:35;;;;;;;3.40;1.52;;;;;;;18.57;44.42;99398.17;1627277;87;21010;-78
2022/09/24 11:01:20;;;;;;;3.33;1.82;;;;;;;18.82;43.21;99396.88;1647700;87;21061;-79
2022/09/24 11:04:29;;;;;;;2.25;1.35;;;;;;;19.01;42.19;99396.26;1647138;87;20988;-78
2022/09/24 11:07:13;;;;;;;2.55;1.52;;;;;;;19.13;43.81;99394.73;1658255;86;21033;-78
2022/09/24 11:10:01;;;;;;;2.47;1.57;;;;;;;19.22;43.39;99386.33;1619597;86;21057;-78
2022/09/24 11:12:46;;;;;;;2.95;1.70;;;;;;;19.18;37.98;99393.15;1652268;86;21037;-78
2022/09/24 11:15:49;;;;;;;4.50;2.10;;;;;;;19.05;39.11;99384.61;1669569;84;20989;-78
2022/09/24 11:18:44;;;;;;;4.90;1.87;;;;;;;18.99;41.53;99382.80;1675305;84;21493;-79
2022/09/24 11:21:16;;;;;;;2.37;1.50;;;;;;;18.87;37.33;99390.42;1682440;84;20976;-78
2022/09/24 11:24:14;;;;;;;3.00;1.87;;;;;;;18.84;38.41;99374.81;1667275;85;21034;-79
2022/09/24 11:26:59;;;;;;;3.55;1.98;;;;;;;18.85;37.77;99376.48;1692950;84;20993;-78
2022/09/24 11:30:01;;;;;;;3.12;1.57;;;;;;;19.01;41.59;99374.34;1678435;85;21060;-78
2022/09/24 11:33:07;;;;;;;3.35;1.50;;;;;;;19.19;40.27;99373.78;1691870;84;21003;-79
2022/09/24 11:36:24;;;;;;;2.17;1.45;;;;;;;19.45;42.12;99365.70;1682214;85;21513;-79
2022/09/24 11:39:03;;;;;;;2.60;1.50;;;;;;;19.45;40.46;99357.32;1677475;85;21061;-78
2022/09/24 11:41:42;;;;;;;2.80;1.70;;;;;;;19.49;40.50;99364.59;1666335;86;21001;-79
2022/09/24 11:44:40;;;;;;;3.47;1.50;;;;;;;19.70;41.53;99362.51;1659110;85;21553;-81
2022/09/24 11:47:36;;;;;;;2.60;1.40;;;;;;;19.88;41.38;99355.81;1665585;86;21046;-79
2022/09/24 11:50:32;;;;;;;2.80;1.70;;;;;;;20.10;38.89;99357.53;1659322;86;21525;-79
2022/09/24 11:53:08;;;;;;;1.70;1.30;;;;;;;20.15;38.48;99354.13;1647680;86;21002;-79
2022/09/24 11:55:48;;;;;;;6.97;1.55;;;;;;;20.43;39.56;99349.36;1659582;84;21034;-79
2022/09/24 11:58:29;;;;;;;2.40;1.35;;;;;;;20.83;39.89;99343.38;1666899;86;21037;-78
2022/09/24 12:01:13;;;;;;;2.22;1.42;;;;;;;21.04;39.34;99339.36;1664160;86;20990;-78
2022/09/24 12:04:15;;;;;;;3.72;2.02;;;;;;;20.96;39.07;99339.49;1663034;86;21036;-79
2022/09/24 12:06:53;;;;;;;3.37;1.15;;;;;;;20.96;33.29;99345.63;1662463;86;20990;-79
2022/09/24 12:09:31;;;;;;;2.60;1.37;;;;;;;21.01;37.51;99347.99;1663386;85;21026;-78
2022/09/24 12:12:13;;;;;;;3.27;1.57;;;;;;;20.95;36.31;99354.96;1655109;86;21029;-79
2022/09/24 12:15:13;;;;;;;1.90;1.40;;;;;;;20.65;36.00;99346.70;1648940;85;21079;-79
2022/09/24 12:17:49;;;;;;;2.65;1.60;;;;;;;20.65;36.00;99346.70;1641044;87;21559;-78
2022/09/24 12:20:27;;;;;;;2.87;1.55;;;;;;;20.60;37.85;99338.23;1660805;86;20979;-78
2022/09/24 12:23:03;;;;;;;3.17;1.60;;;;;;;20.57;39.08;99330.46;1625851;87;21041;-77
2022/09/24 12:25:44;;;;;;;2.95;1.60;;;;;;;20.58;38.15;99336.98;1626877;87;21673;-79
2022/09/24 12:32:52;;;;;;;4.15;1.40;;;;;;;20.55;39.08;99337.63;1664586;85;21498;-78